Time;durP1;ratioP1;P1;durP2;ratioP2;P2;SDS_P1;SDS_P2;PMS_P1;PMS_P2;Temp;Humidity;BMP_temperature;BMP_pressure;BME280_temperature;BME280_humidity;BME280_pressure;Samples;Min_cycle;Max_cycle;Signal;HPM_P1;HPM_P2
2022/01/19 00:01:39;;;;;;;2.55;1.13;;;18.40;55.10;;;;;;5060096;28;20168;-83
2022/01/19 00:04:07;;;;;;;5.40;1.10;;;18.40;54.70;;;;;;5060029;28;20164;-83
2022/01/19 00:06:37;;;;;;;5.63;1.00;;;18.30;55.00;;;;;;5077622;28;20196;-84
2022/01/19 00:09:03;;;;;;;2.35;1.00;;;18.40;55.00;;;;;;5081424;28;20157;-83
2022/01/19 00:11:28;;;;;;;3.05;0.90;;;18.40;54.80;;;;;;5063516;28;20160;-84
2022/01/19 00:13:55;;;;;;;3.70;1.10;;;18.40;55.00;;;;;;5079929;28;20526;-84
2022/01/19 00:16:21;;;;;;;3.38;0.80;;;18.40;54.90;;;;;;5063169;28;20172;-84
2022/01/19 00:18:47;;;;;;;4.07;1.23;;;18.40;55.00;;;;;;5096864;28;20153;-84
2022/01/19 00:21:15;;;;;;;2.38;1.05;;;18.40;54.80;;;;;;5079553;28;20531;-84
2022/01/19 00:23:40;;;;;;;2.15;0.85;;;18.40;54.70;;;;;;5063551;28;20260;-84
2022/01/19 00:26:06;;;;;;;3.28;1.30;;;18.30;54.90;;;;;;5079493;28;20279;-83
2022/01/19 00:28:31;;;;;;;2.85;0.80;;;18.40;54.70;;;;;;5062627;28;20263;-84
2022/01/19 00:30:57;;;;;;;2.67;0.90;;;18.40;54.50;;;;;;5096026;28;20141;-84
2022/01/19 00:33:23;;;;;;;2.78;1.10;;;18.40;54.70;;;;;;5079358;28;20226;-83
2022/01/19 00:35:50;;;;;;;3.28;1.10;;;18.40;54.90;;;;;;5062543;28;20322;-84
2022/01/19 00:38:16;;;;;;;2.63;0.95;;;18.40;54.60;;;;;;5062622;28;20171;-84
2022/01/19 00:40:41;;;;;;;4.68;1.10;;;18.40;54.50;;;;;;5079972;28;20157;-83
2022/01/19 00:43:07;;;;;;;3.67;0.93;;;18.40;54.70;;;;;;5079401;28;20145;-84
2022/01/19 00:45:33;;;;;;;1.98;1.08;;;18.30;54.70;;;;;;5062274;28;20575;-84
2022/01/19 00:48:00;;;;;;;2.47;0.82;;;18.30;54.50;;;;;;5079255;28;20226;-84
2022/01/19 00:50:27;;;;;;;5.95;1.20;;;18.40;55.20;;;;;;5079264;28;20595;-84
2022/01/19 00:52:54;;;;;;;2.10;1.08;;;18.40;54.50;;;;;;5062258;28;20556;-84
2022/01/19 00:55:22;;;;;;;3.40;0.95;;;18.40;54.60;;;;;;5062507;28;20263;-84
2022/01/19 00:57:48;;;;;;;1.58;0.80;;;18.30;54.60;;;;;;5079190;28;20626;-84
2022/01/19 01:00:18;;;;;;;3.67;1.00;;;18.40;54.60;;;;;;5062513;28;20161;-84
2022/01/19 01:02:44;;;;;;;3.17;0.82;;;18.40;54.80;;;;;;5063109;28;20189;-83
2022/01/19 01:05:09;;;;;;;2.83;0.98;;;18.30;54.50;;;;;;5078717;28;20250;-84
2022/01/19 01:07:38;;;;;;;3.08;1.08;;;18.40;54.80;;;;;;5079016;28;20167;-84
2022/01/19 01:10:08;;;;;;;3.05;0.88;;;18.20;54.60;;;;;;5079112;28;20171;-83
2022/01/19 01:12:51;;;;;;;4.43;1.00;;;18.40;54.50;;;;;;5078489;28;20173;-84
2022/01/19 01:15:28;;;;;;;3.05;1.05;;;18.30;54.70;;;;;;5081466;28;20164;-83
2022/01/19 01:20:45;;;;;;;1.88;0.80;;;18.30;54.70;;;;;;5067779;28;20161;-84
2022/01/19 01:23:12;;;;;;;4.75;1.40;;;18.30;54.70;;;;;;5079160;28;20196;-84
2022/01/19 01:25:38;;;;;;;2.22;1.02;;;18.30;54.80;;;;;;5078480;28;20238;-84
2022/01/19 01:28:04;;;;;;;2.17;0.80;;;18.20;54.80;;;;;;5061790;28;20625;-84
2022/01/19 01:30:30;;;;;;;3.35;1.00;;;18.20;54.70;;;;;;5078478;28;20619;-84
2022/01/19 01:32:59;;;;;;;1.52;1.00;;;18.20;55.00;;;;;;5095247;28;20191;-84
2022/01/19 01:35:24;;;;;;;2.60;0.80;;;18.10;54.80;;;;;;5062399;28;20236;-84
2022/01/19 01:37:50;;;;;;;4.10;0.90;;;18.20;54.70;;;;;;5061720;28;20256;-84
2022/01/19 01:40:16;;;;;;;5.03;1.10;;;18.20;55.00;;;;;;5095158;28;20685;-84
2022/01/19 01:42:42;;;;;;;2.63;0.95;;;18.20;55.20;;;;;;5061235;28;20587;-84
2022/01/19 01:45:12;;;;;;;1.73;0.82;;;18.20;55.00;;;;;;5094657;28;20220;-83
2022/01/19 01:47:43;;;;;;;2.00;0.80;;;18.20;54.70;;;;;;5062822;28;20191;-84
2022/01/19 01:55:31;;;;;;;4.07;0.90;;;18.10;54.80;;;;;;5080116;28;20218;-83
2022/01/19 01:57:57;;;;;;;3.38;0.93;;;18.20;54.70;;;;;;5061424;28;20164;-84
2022/01/19 02:00:24;;;;;;;2.25;0.90;;;18.20;54.90;;;;;;5094851;28;20160;-83
2022/01/19 02:02:49;;;;;;;2.97;1.00;;;18.10;55.00;;;;;;5060973;28;20537;-84
2022/01/19 02:05:16;;;;;;;3.35;0.93;;;18.10;54.60;;;;;;5060954;28;20659;-84
2022/01/19 02:07:48;;;;;;;2.63;0.80;;;18.20;54.50;;;;;;5078451;28;20161;-84
2022/01/19 02:23:43;;;;;;;1.65;0.85;;;18.10;55.00;;;;;;5093851;28;20209;-84
2022/01/19 02:26:15;;;;;;;2.13;0.80;;;18.10;54.90;;;;;;5078599;28;20191;-84
2022/01/19 02:31:53;;;;;;;2.55;1.02;;;18.10;54.90;;;;;;5065794;28;20156;-84
2022/01/19 02:42:25;;;;;;;2.05;1.00;;;18.10;55.00;;;;;;5079971;28;20513;-84
2022/01/19 02:50:25;;;;;;;3.60;0.90;;;18.10;54.90;;;;;;5078977;28;20165;-84
2022/01/19 02:52:52;;;;;;;2.20;0.70;;;18.10;54.60;;;;;;5076952;28;20149;-84
2022/01/19 02:55:20;;;;;;;2.47;1.00;;;18.00;54.80;;;;;;5076825;28;20161;-84
2022/01/19 02:57:46;;;;;;;1.45;0.70;;;18.10;54.60;;;;;;5093391;28;20149;-84
2022/01/19 03:10:55;;;;;;;1.50;0.82;;;18.00;55.00;;;;;;5094174;28;20184;-84
2022/01/19 03:13:25;;;;;;;2.50;1.00;;;18.00;55.20;;;;;;5093017;28;20149;-84
2022/01/19 03:15:50;;;;;;;2.72;0.80;;;18.00;55.10;;;;;;5059335;28;20580;-84
2022/01/19 03:18:17;;;;;;;3.92;1.20;;;18.00;55.30;;;;;;5075954;28;20168;-84
2022/01/19 03:20:43;;;;;;;2.47;0.85;;;18.00;55.10;;;;;;5075836;28;20496;-84
2022/01/19 03:25:45;;;;;;;3.33;1.00;;;18.00;55.10;;;;;;5092788;28;20291;-84
2022/01/19 03:28:11;;;;;;;3.03;0.98;;;17.90;55.00;;;;;;5059427;28;20219;-83
2022/01/19 03:30:36;;;;;;;2.42;0.88;;;17.90;54.80;;;;;;5092765;28;20157;-84
2022/01/19 03:33:02;;;;;;;4.07;1.02;;;18.00;55.10;;;;;;5075511;28;20174;-84
2022/01/19 03:35:29;;;;;;;1.27;0.73;;;18.00;55.10;;;;;;5075886;28;20188;-84
2022/01/19 03:37:55;;;;;;;4.00;1.30;;;17.90;54.80;;;;;;5076207;28;20148;-83
2022/01/19 03:40:22;;;;;;;2.05;0.75;;;18.00;54.90;;;;;;5075818;28;20161;-84
2022/01/19 03:42:48;;;;;;;2.08;0.75;;;18.00;55.00;;;;;;5076395;28;20157;-84
2022/01/19 03:45:14;;;;;;;2.72;1.10;;;18.00;54.90;;;;;;5075690;28;20978;-84
2022/01/19 03:47:44;;;;;;;1.15;0.80;;;18.00;55.10;;;;;;5059870;28;20169;-84
2022/01/19 03:50:10;;;;;;;1.52;0.90;;;18.00;55.00;;;;;;5060727;28;20168;-83
2022/01/19 03:52:37;;;;;;;2.10;1.10;;;17.90;55.30;;;;;;5059457;28;20283;-84
2022/01/19 03:55:03;;;;;;;3.15;0.88;;;18.00;54.90;;;;;;5076171;28;20153;-84
2022/01/19 03:57:29;;;;;;;1.35;0.77;;;17.90;54.80;;;;;;5059403;28;20200;-84
2022/01/19 03:59:55;;;;;;;4.20;1.00;;;17.90;54.70;;;;;;5059641;28;20245;-83
2022/01/19 04:02:22;;;;;;;1.98;0.88;;;18.00;54.80;;;;;;5076228;28;20152;-84
2022/01/19 04:04:57;;;;;;;1.55;0.85;;;17.90;54.70;;;;;;5076474;28;20248;-84
2022/01/19 04:07:24;;;;;;;1.90;0.63;;;17.90;54.50;;;;;;5077002;28;20152;-84
2022/01/19 04:09:52;;;;;;;2.65;0.90;;;17.90;54.90;;;;;;5058752;28;20165;-84
2022/01/19 04:12:26;;;;;;;3.20;0.85;;;17.90;55.20;;;;;;5059745;28;20160;-84
2022/01/19 04:14:52;;;;;;;2.40;1.00;;;17.90;55.50;;;;;;5076876;28;20563;-83
2022/01/19 04:17:18;;;;;;;2.08;0.90;;;17.90;55.40;;;;;;5075835;28;20195;-84
2022/01/19 04:19:46;;;;;;;1.13;0.80;;;17.90;55.10;;;;;;5092574;28;20145;-84
2022/01/19 04:22:14;;;;;;;1.98;1.00;;;17.90;54.90;;;;;;5093599;28;20184;-83
2022/01/19 04:24:40;;;;;;;2.78;1.00;;;18.00;55.30;;;;;;5059407;28;20161;-84
2022/01/19 04:27:32;;;;;;;2.10;0.80;;;17.90;55.30;;;;;;5075567;28;20208;-83
2022/01/19 04:30:03;;;;;;;2.00;0.80;;;17.90;55.40;;;;;;5078340;28;20173;-84
2022/01/19 04:32:38;;;;;;;3.17;0.85;;;17.90;55.20;;;;;;5061701;28;20164;-84
2022/01/19 04:35:07;;;;;;;2.70;0.95;;;17.80;55.30;;;;;;5092378;28;20629;-83
2022/01/19 04:37:47;;;;;;;2.90;1.05;;;17.90;55.10;;;;;;5092197;28;20149;-84
2022/01/19 04:48:47;;;;;;;2.75;1.00;;;17.80;55.20;;;;;;5092958;28;20195;-84
2022/01/19 05:02:03;;;;;;;2.70;0.90;;;17.80;55.10;;;;;;5096912;28;20165;-84
2022/01/19 05:04:45;;;;;;;2.38;1.02;;;17.80;55.30;;;;;;5065858;28;20648;-83
2022/01/19 05:07:18;;;;;;;2.10;1.13;;;17.80;55.30;;;;;;5066754;28;20208;-84
2022/01/19 05:15:05;;;;;;;2.67;1.10;;;17.80;55.40;;;;;;5080946;28;20156;-83
2022/01/19 05:17:32;;;;;;;2.00;0.98;;;17.80;55.40;;;;;;5062718;28;20165;-83
2022/01/19 05:19:57;;;;;;;2.30;0.85;;;17.80;55.50;;;;;;5078633;28;20160;-84
2022/01/19 05:22:24;;;;;;;3.28;1.10;;;17.80;55.30;;;;;;5079290;28;20153;-84
2022/01/19 05:24:51;;;;;;;2.65;1.00;;;17.90;54.60;;;;;;5078491;28;20164;-84
2022/01/19 05:27:19;;;;;;;1.20;0.75;;;17.90;54.60;;;;;;5078844;28;20156;-83
2022/01/19 05:29:45;;;;;;;2.80;0.75;;;17.90;54.00;;;;;;5078819;28;20157;-84
2022/01/19 05:32:11;;;;;;;1.35;0.70;;;18.00;54.20;;;;;;5095407;28;20725;-85
2022/01/19 05:34:37;;;;;;;2.63;0.73;;;18.10;54.40;;;;;;5078808;28;20500;-84
2022/01/19 05:37:03;;;;;;;1.40;0.80;;;18.00;54.40;;;;;;5078859;28;20169;-84
2022/01/19 05:39:29;;;;;;;1.83;1.00;;;18.00;54.30;;;;;;5078958;28;20228;-83
2022/01/19 05:41:55;;;;;;;2.78;0.80;;;18.10;53.60;;;;;;5061815;28;20703;-83
2022/01/19 05:44:20;;;;;;;1.23;0.60;;;18.10;53.90;;;;;;5095323;28;20568;-83
2022/01/19 05:46:47;;;;;;;2.35;0.95;;;18.00;54.20;;;;;;5095378;28;20224;-84
2022/01/19 05:49:15;;;;;;;3.20;1.10;;;18.10;53.70;;;;;;5078539;28;20334;-84
2022/01/19 05:51:41;;;;;;;3.28;0.90;;;18.20;53.70;;;;;;5077040;28;20572;-84
2022/01/19 05:54:08;;;;;;;1.77;0.80;;;18.20;53.50;;;;;;5061774;28;20274;-84
2022/01/19 05:56:34;;;;;;;1.42;0.80;;;18.20;53.00;;;;;;5061434;28;20251;-84
2022/01/19 05:59:00;;;;;;;2.55;1.00;;;18.20;53.50;;;;;;5078280;28;20161;-84
2022/01/19 06:01:25;;;;;;;1.50;0.70;;;18.20;53.60;;;;;;5078089;28;20549;-84
2022/01/19 06:03:52;;;;;;;1.48;0.85;;;18.20;53.20;;;;;;5078059;28;20149;-84
2022/01/19 06:06:19;;;;;;;1.98;0.80;;;18.20;53.50;;;;;;5094678;28;20322;-83
2022/01/19 06:08:48;;;;;;;1.05;0.80;;;18.20;53.30;;;;;;5077974;28;20153;-84
2022/01/19 06:11:13;;;;;;;3.35;1.00;;;18.20;53.20;;;;;;5061916;28;20177;-84
2022/01/19 06:13:40;;;;;;;3.40;0.82;;;18.20;53.20;;;;;;5061439;28;20169;-84
2022/01/19 06:16:07;;;;;;;1.17;0.70;;;18.30;53.20;;;;;;5061718;28;20192;-84
2022/01/19 06:18:33;;;;;;;1.55;0.77;;;18.30;52.80;;;;;;5077768;28;20173;-84
2022/01/19 06:20:58;;;;;;;3.15;0.90;;;18.30;52.80;;;;;;5061327;28;20191;-83
2022/01/19 06:23:24;;;;;;;1.20;0.82;;;18.30;53.10;;;;;;5077502;28;20226;-84
2022/01/19 06:25:49;;;;;;;0.73;0.70;;;18.30;52.70;;;;;;5060896;28;20197;-83
2022/01/19 06:28:16;;;;;;;2.13;0.77;;;18.30;52.90;;;;;;5077275;28;20153;-84
2022/01/19 06:30:42;;;;;;;1.33;0.80;;;18.20;53.00;;;;;;5094069;28;20210;-85
2022/01/19 06:33:07;;;;;;;1.88;0.82;;;18.30;52.80;;;;;;5094158;28;20620;-83
2022/01/19 06:35:35;;;;;;;3.03;0.85;;;18.30;53.00;;;;;;5077439;28;20172;-84
2022/01/19 06:38:01;;;;;;;2.40;0.80;;;18.30;52.80;;;;;;5077236;28;20616;-84
2022/01/19 06:40:27;;;;;;;2.40;0.80;;;18.30;52.80;;;;;;5060348;28;20161;-83
2022/01/19 06:42:54;;;;;;;1.30;0.80;;;18.30;52.80;;;;;;5077007;28;20218;-84
2022/01/19 06:45:20;;;;;;;1.52;0.80;;;18.30;52.80;;;;;;5076446;28;20228;-84
2022/01/19 06:47:46;;;;;;;1.27;0.70;;;18.30;52.80;;;;;;5061121;28;20160;-84
2022/01/19 06:50:12;;;;;;;1.30;0.57;;;18.30;53.10;;;;;;5080210;28;20152;-85
2022/01/19 06:52:39;;;;;;;1.42;0.70;;;18.30;52.50;;;;;;5098847;28;20153;-85
2022/01/19 06:55:11;;;;;;;1.75;0.77;;;18.30;52.70;;;;;;5066342;28;20161;-85
2022/01/19 06:57:38;;;;;;;2.10;0.90;;;18.30;52.20;;;;;;5081754;28;20165;-84
2022/01/19 07:00:05;;;;;;;2.63;0.95;;;18.40;52.60;;;;;;5065074;28;20161;-85
2022/01/19 07:02:30;;;;;;;2.60;0.90;;;18.40;52.90;;;;;;5063245;28;20620;-85
2022/01/19 07:05:00;;;;;;;0.68;0.60;;;18.30;52.80;;;;;;5064578;28;20168;-85
2022/01/19 07:07:25;;;;;;;1.58;0.70;;;18.30;53.00;;;;;;5064300;28;20195;-85
2022/01/19 07:09:51;;;;;;;2.22;0.82;;;18.40;52.50;;;;;;5081504;28;20165;-85
2022/01/19 07:12:19;;;;;;;1.73;0.98;;;18.40;52.50;;;;;;5079947;28;20638;-85
2022/01/19 07:14:44;;;;;;;1.23;0.77;;;18.30;52.40;;;;;;5060926;28;20209;-85
2022/01/19 07:17:10;;;;;;;1.98;0.70;;;18.40;52.50;;;;;;5059407;28;20179;-84
2022/01/19 07:19:40;;;;;;;2.30;0.80;;;18.40;52.40;;;;;;5079405;28;20511;-89
2022/01/19 07:22:09;;;;;;;1.92;0.80;;;18.40;52.50;;;;;;5059756;28;20173;-86
2022/01/19 07:24:36;;;;;;;1.58;0.82;;;18.40;52.10;;;;;;5058218;28;20664;-85
2022/01/19 07:27:03;;;;;;;3.88;0.60;;;18.40;52.10;;;;;;5038826;28;20259;-87
2022/01/19 07:29:39;;;;;;;2.50;0.73;;;18.40;52.20;;;;;;5042696;28;20189;-91
2022/01/19 07:32:09;;;;;;;2.33;0.98;;;18.40;52.00;;;;;;5020361;28;20257;-90
2022/01/19 07:34:44;;;;;;;2.90;0.75;;;18.40;52.00;;;;;;5022051;28;20159;-87
2022/01/19 07:37:11;;;;;;;1.25;0.65;;;18.40;52.50;;;;;;5052146;28;20640;-86
2022/01/19 07:39:57;;;;;;;0.80;0.70;;;18.40;52.70;;;;;;5022825;28;20191;-86
2022/01/19 07:42:25;;;;;;;1.90;0.80;;;18.40;52.20;;;;;;5023620;28;20171;-87
2022/01/19 07:44:52;;;;;;;2.05;0.60;;;18.40;52.50;;;;;;5016951;28;20245;-86
2022/01/19 07:47:17;;;;;;;0.93;0.70;;;18.40;52.00;;;;;;5015208;28;20248;-84
2022/01/19 07:49:43;;;;;;;1.27;0.75;;;18.40;52.30;;;;;;5014503;28;20633;-85
2022/01/19 07:52:54;;;;;;;;;;;;;;;;;;;;;
2022/01/19 07:55:23;;;;;;;1.75;0.90;;;18.50;51.90;;;;;;5001132;28;20276;-87
2022/01/19 07:57:51;;;;;;;1.40;0.70;;;18.50;51.90;;;;;;4997638;28;20183;-86
2022/01/19 08:00:27;;;;;;;3.00;0.80;;;18.50;52.20;;;;;;5000543;28;20186;-88
2022/01/19 08:02:58;;;;;;;1.58;0.90;;;18.50;52.30;;;;;;5016589;28;20240;-85
2022/01/19 08:05:28;;;;;;;0.80;0.68;;;18.50;52.20;;;;;;5014650;28;20533;-84
2022/01/19 08:07:56;;;;;;;1.33;0.70;;;18.50;51.70;;;;;;4940351;29;20186;-84
2022/01/19 08:10:25;;;;;;;3.63;1.00;;;18.60;52.20;;;;;;4940179;29;20720;-84
2022/01/19 08:12:52;;;;;;;1.33;0.80;;;18.60;51.70;;;;;;4941276;29;20185;-83
2022/01/19 08:15:18;;;;;;;1.60;0.80;;;18.60;52.00;;;;;;4942192;29;20185;-85
2022/01/19 08:17:44;;;;;;;1.35;0.75;;;18.60;52.00;;;;;;4941704;29;20162;-84
2022/01/19 08:20:11;;;;;;;1.65;0.90;;;18.60;52.30;;;;;;4940658;29;20182;-82
2022/01/19 08:22:37;;;;;;;1.85;0.70;;;18.60;52.30;;;;;;4924945;29;20197;-83
2022/01/19 08:25:05;;;;;;;1.17;0.80;;;18.60;52.30;;;;;;4941689;29;20720;-82
2022/01/19 08:27:31;;;;;;;2.17;0.70;;;18.60;52.30;;;;;;4925236;29;20189;-83
2022/01/19 08:29:57;;;;;;;1.55;0.60;;;18.60;52.00;;;;;;4953240;28;20597;-84
2022/01/19 08:32:24;;;;;;;2.05;0.88;;;18.60;52.20;;;;;;5004270;28;20189;-83
2022/01/19 08:34:55;;;;;;;1.92;0.80;;;18.60;51.40;;;;;;5026147;28;20181;-82
2022/01/19 08:37:21;;;;;;;1.60;0.70;;;18.70;52.00;;;;;;5042621;28;20314;-82
2022/01/19 08:39:48;;;;;;;1.08;0.80;;;18.60;51.80;;;;;;5042486;28;20155;-84
2022/01/19 08:42:14;;;;;;;1.33;0.90;;;18.60;51.70;;;;;;5040876;28;20159;-84
2022/01/19 08:44:41;;;;;;;1.50;0.93;;;18.60;51.90;;;;;;5063052;28;20192;-81
2022/01/19 08:47:09;;;;;;;2.30;0.80;;;18.70;52.30;;;;;;5064454;28;20235;-83
2022/01/19 08:49:35;;;;;;;0.93;0.82;;;18.60;51.90;;;;;;5081069;28;20166;-82
2022/01/19 08:52:04;;;;;;;1.45;0.88;;;18.60;51.90;;;;;;5063009;28;20783;-84
2022/01/19 08:54:29;;;;;;;1.30;0.82;;;18.70;51.90;;;;;;5061620;28;20184;-82
2022/01/19 08:56:57;;;;;;;1.17;0.68;;;18.70;51.70;;;;;;5080507;28;20165;-82
2022/01/19 08:59:23;;;;;;;2.92;0.70;;;18.70;51.70;;;;;;5065295;28;20165;-82
2022/01/19 09:01:50;;;;;;;2.13;0.77;;;18.70;51.90;;;;;;5045032;28;20169;-81
2022/01/19 09:04:17;;;;;;;1.02;0.70;;;18.70;52.20;;;;;;5072862;28;20223;-82
2022/01/19 09:06:43;;;;;;;1.00;0.65;;;18.70;52.20;;;;;;5113947;27;20184;-84
2022/01/19 09:09:10;;;;;;;1.90;0.80;;;18.60;51.70;;;;;;5095715;28;20251;-83
2022/01/19 09:11:42;;;;;;;1.88;0.73;;;18.70;52.00;;;;;;5097157;28;20252;-83
2022/01/19 09:14:10;;;;;;;1.05;0.70;;;18.70;51.90;;;;;;5064496;28;20263;-84
2022/01/19 09:16:37;;;;;;;2.28;0.80;;;18.80;51.90;;;;;;5080777;28;20206;-84
2022/01/19 09:19:03;;;;;;;2.05;0.90;;;18.80;52.30;;;;;;5097892;28;20156;-81
2022/01/19 09:21:34;;;;;;;1.25;0.77;;;18.80;52.40;;;;;;5113460;27;20156;-81
2022/01/19 09:24:03;;;;;;;3.28;0.88;;;18.80;52.10;;;;;;5098305;28;20153;-83
2022/01/19 09:26:29;;;;;;;1.83;0.80;;;18.80;52.10;;;;;;5096530;28;20181;-85
2022/01/19 09:28:55;;;;;;;2.47;0.70;;;18.80;52.10;;;;;;5097283;28;20256;-84
2022/01/19 09:31:24;;;;;;;1.10;1.00;;;18.80;52.80;;;;;;5113709;28;20645;-85
2022/01/19 09:34:05;;;;;;;1.27;0.90;;;18.90;51.20;;;;;;5078191;28;20190;-84
2022/01/19 09:36:45;;;;;;;0.90;0.60;;;18.90;51.40;;;;;;5109414;28;20156;-83
2022/01/19 09:39:14;;;;;;;3.28;0.90;;;18.90;52.10;;;;;;5072515;28;20334;-83
2022/01/19 09:41:41;;;;;;;1.25;0.73;;;18.80;52.20;;;;;;5040646;28;20174;-83
2022/01/19 09:44:07;;;;;;;2.42;1.13;;;18.90;51.80;;;;;;5040774;28;20581;-83
2022/01/19 09:46:33;;;;;;;3.67;0.90;;;18.80;52.30;;;;;;5041728;28;20217;-84
2022/01/19 09:49:01;;;;;;;1.15;0.85;;;18.80;52.00;;;;;;5023977;28;20698;-84
2022/01/19 09:51:30;;;;;;;1.83;0.70;;;18.90;51.70;;;;;;5057683;28;20180;-85
2022/01/19 09:53:58;;;;;;;1.75;0.90;;;18.90;51.90;;;;;;5057732;28;20231;-84
2022/01/19 09:56:23;;;;;;;3.58;0.90;;;19.00;51.80;;;;;;5040622;28;20340;-81
2022/01/19 09:58:56;;;;;;;3.90;1.00;;;19.00;51.70;;;;;;5056410;28;20261;-82
2022/01/19 10:01:23;;;;;;;2.95;0.75;;;18.90;51.30;;;;;;5043207;28;20209;-83
2022/01/19 10:03:49;;;;;;;3.05;1.10;;;19.00;51.60;;;;;;5024396;28;20172;-83
2022/01/19 10:06:28;;;;;;;3.05;0.93;;;19.00;51.30;;;;;;5042029;28;20197;-83
2022/01/19 10:08:56;;;;;;;2.08;0.80;;;19.00;51.50;;;;;;4976689;28;20211;-83
2022/01/19 10:16:59;;;;;;;2.92;0.95;;;19.00;51.60;;;;;;5009734;28;20655;-84
2022/01/19 10:19:27;;;;;;;2.17;0.82;;;19.10;51.50;;;;;;5012148;28;20298;-84
2022/01/19 10:22:31;;;;;;;4.13;1.50;;;19.00;51.90;;;;;;4997906;28;20172;-84
2022/01/19 10:25:05;;;;;;;1.58;0.70;;;19.00;51.60;;;;;;4992895;28;20210;-84
2022/01/19 10:27:40;;;;;;;1.38;0.80;;;19.10;52.00;;;;;;5010287;28;20672;-85
2022/01/19 10:30:19;;;;;;;2.17;0.95;;;19.10;51.40;;;;;;4999954;28;20209;-83
2022/01/19 10:32:50;;;;;;;2.10;0.90;;;19.10;51.50;;;;;;5012307;28;20160;-84
2022/01/19 10:35:18;;;;;;;1.13;0.88;;;19.20;51.30;;;;;;4979723;28;20191;-84
2022/01/19 10:38:13;;;;;;;1.58;0.90;;;19.10;51.30;;;;;;4979718;28;20171;-85
2022/01/19 10:40:41;;;;;;;1.58;0.80;;;19.10;51.30;;;;;;5095625;28;20586;-84
2022/01/19 10:43:23;;;;;;;1.88;0.70;;;19.10;51.60;;;;;;5073354;28;20583;-84
2022/01/19 10:46:25;;;;;;;4.63;1.30;;;19.20;51.40;;;;;;5072515;28;20312;-84
2022/01/19 10:48:59;;;;;;;1.98;1.00;;;19.10;51.40;;;;;;5107202;28;20176;-84
2022/01/19 10:51:30;;;;;;;0.75;0.70;;;19.00;51.60;;;;;;5059131;28;20694;-84
2022/01/19 10:54:17;;;;;;;1.95;0.73;;;19.00;51.70;;;;;;5077159;28;20349;-84
2022/01/19 10:56:44;;;;;;;1.40;0.90;;;19.00;51.50;;;;;;5058379;28;20185;-84
2022/01/19 10:59:16;;;;;;;1.95;0.93;;;19.10;51.60;;;;;;5040953;28;20169;-85
2022/01/19 11:01:47;;;;;;;1.92;1.00;;;19.00;51.70;;;;;;5040065;28;20234;-85
2022/01/19 11:05:25;;;;;;;1.40;0.90;;;19.00;51.90;;;;;;5043196;28;20161;-87
2022/01/19 11:07:54;;;;;;;2.55;1.17;;;19.00;51.70;;;;;;5036029;28;20208;-85
2022/01/19 11:10:31;;;;;;;1.90;0.98;;;19.00;51.40;;;;;;4979761;28;20211;-85
2022/01/19 11:13:14;;;;;;;1.05;0.90;;;19.00;51.40;;;;;;4961052;28;20278;-86
2022/01/19 11:15:50;;;;;;;1.50;0.90;;;19.00;51.30;;;;;;4963675;28;20196;-88
2022/01/19 11:18:25;;;;;;;2.05;1.00;;;19.00;51.50;;;;;;4962935;28;20164;-85
2022/01/19 11:20:51;;;;;;;1.52;0.70;;;19.00;51.60;;;;;;4959237;28;20200;-85
2022/01/19 11:23:29;;;;;;;1.30;0.80;;;19.00;51.40;;;;;;4973088;28;20620;-86
2022/01/19 11:25:59;;;;;;;0.98;0.90;;;19.00;51.40;;;;;;4953721;29;20612;-86
2022/01/19 11:28:27;;;;;;;1.88;0.90;;;19.00;51.60;;;;;;4965263;28;20185;-85
2022/01/19 11:31:11;;;;;;;2.20;0.88;;;19.00;51.50;;;;;;4953928;28;20598;-85
2022/01/19 11:33:57;;;;;;;1.48;0.90;;;19.00;51.50;;;;;;4933857;28;20782;-86
2022/01/19 11:36:28;;;;;;;1.17;0.90;;;19.00;51.50;;;;;;4936426;29;20290;-86
2022/01/19 11:39:20;;;;;;;1.10;0.70;;;18.90;51.60;;;;;;4949602;29;20182;-85
2022/01/19 11:42:16;;;;;;;2.03;1.00;;;19.00;51.50;;;;;;5012274;28;20179;-85
2022/01/19 11:44:43;;;;;;;2.85;1.00;;;19.00;51.20;;;;;;4994608;28;20219;-87
2022/01/19 11:47:11;;;;;;;1.33;0.88;;;19.10;51.40;;;;;;4991794;28;20234;-87
2022/01/19 11:49:50;;;;;;;2.17;0.98;;;19.00;51.30;;;;;;4991662;28;20254;-86
2022/01/19 11:52:41;;;;;;;1.30;0.90;;;19.10;51.40;;;;;;4976080;28;20183;-85
2022/01/19 11:55:49;;;;;;;2.20;0.85;;;19.10;51.60;;;;;;4975442;28;20571;-85
2022/01/19 11:58:24;;;;;;;1.20;0.85;;;19.00;52.20;;;;;;5015596;28;20185;-85
2022/01/19 12:01:06;;;;;;;;;;;;;;;;;;;;;
2022/01/19 12:03:35;;;;;;;2.03;0.98;;;18.90;51.90;;;;;;5013074;28;20186;-85
2022/01/19 12:06:38;;;;;;;1.55;0.90;;;19.00;51.70;;;;;;5018756;28;20218;-85
2022/01/19 12:09:08;;;;;;;1.02;0.70;;;19.00;51.70;;;;;;5054547;28;20212;-87
2022/01/19 12:11:50;;;;;;;1.38;0.88;;;19.00;51.50;;;;;;5065936;28;20193;-87
2022/01/19 12:14:26;;;;;;;1.88;0.80;;;19.00;51.20;;;;;;5060384;28;20184;-86
2022/01/19 12:17:07;;;;;;;1.20;0.70;;;19.00;51.40;;;;;;5064071;28;20207;-84
2022/01/19 12:19:41;;;;;;;1.80;0.80;;;19.10;51.30;;;;;;5037290;28;20186;-85
2022/01/19 12:22:21;;;;;;;1.92;1.00;;;19.10;51.30;;;;;;5036510;28;20589;-85
2022/01/19 12:25:00;;;;;;;1.40;0.90;;;19.10;51.90;;;;;;5038238;28;20234;-86
2022/01/19 12:27:29;;;;;;;0.73;0.70;;;19.10;51.40;;;;;;5036999;28;20206;-82
2022/01/19 12:30:13;;;;;;;1.48;0.80;;;19.10;51.10;;;;;;5045216;28;20183;-83
2022/01/19 12:32:42;;;;;;;1.15;0.90;;;19.10;51.50;;;;;;5061338;28;20189;-83
2022/01/19 12:35:14;;;;;;;1.25;0.75;;;19.10;51.60;;;;;;5044142;28;20186;-84
2022/01/19 12:37:48;;;;;;;0.82;0.70;;;19.10;51.40;;;;;;5043051;28;20171;-87
2022/01/19 12:40:40;;;;;;;;;;;;;;;;;;;;;
2022/01/19 12:43:16;;;;;;;1.63;1.10;;;19.10;51.00;;;;;;5030400;28;20214;-86
2022/01/19 12:45:54;;;;;;;1.20;0.85;;;19.10;51.30;;;;;;5028787;28;20225;-86
2022/01/19 12:48:41;;;;;;;1.27;1.00;;;19.10;51.40;;;;;;5028381;28;20170;-84
2022/01/19 12:51:46;;;;;;;2.60;0.75;;;19.00;51.40;;;;;;5063441;28;20181;-85
2022/01/19 12:54:19;;;;;;;1.70;0.90;;;19.10;51.50;;;;;;5051495;28;20192;-85
2022/01/19 12:56:55;;;;;;;1.10;0.82;;;19.10;51.70;;;;;;5050488;28;20256;-85
2022/01/19 12:59:21;;;;;;;1.60;1.05;;;19.10;51.50;;;;;;5054886;28;20176;-83
2022/01/19 13:01:47;;;;;;;0.85;0.77;;;19.20;51.10;;;;;;5067491;28;20666;-84
2022/01/19 13:04:29;;;;;;;0.90;0.70;;;19.20;51.00;;;;;;5052540;28;20186;-83
2022/01/19 13:07:21;;;;;;;1.65;0.90;;;19.20;50.70;;;;;;5070803;28;20224;-84
2022/01/19 13:10:04;;;;;;;2.53;0.70;;;19.20;50.80;;;;;;5070103;28;20162;-85
2022/01/19 13:12:45;;;;;;;1.45;0.70;;;19.20;50.80;;;;;;5071053;28;20181;-87
2022/01/19 13:15:11;;;;;;;1.75;0.85;;;19.20;50.90;;;;;;5072735;28;20209;-84
2022/01/19 13:17:41;;;;;;;2.80;0.80;;;19.30;50.80;;;;;;5068738;28;20203;-82
2022/01/19 13:20:10;;;;;;;2.65;0.80;;;19.30;50.60;;;;;;5070314;28;20184;-83
2022/01/19 13:22:46;;;;;;;0.60;0.50;;;19.30;51.00;;;;;;5067451;28;20169;-85
2022/01/19 13:25:25;;;;;;;1.17;0.77;;;19.20;51.10;;;;;;5063695;28;20176;-85
2022/01/19 13:27:55;;;;;;;1.80;1.00;;;19.20;51.10;;;;;;5067420;28;20225;-84
2022/01/19 13:30:23;;;;;;;2.25;1.05;;;19.20;51.00;;;;;;5087395;28;20274;-85
2022/01/19 13:33:02;;;;;;;2.38;0.90;;;19.20;51.10;;;;;;5070578;28;20186;-85
2022/01/19 13:35:29;;;;;;;2.05;1.02;;;19.20;50.90;;;;;;5087084;28;20173;-85
2022/01/19 13:38:13;;;;;;;0.95;0.80;;;19.20;50.80;;;;;;5087837;28;20157;-83
2022/01/19 13:40:41;;;;;;;1.27;0.90;;;19.20;50.90;;;;;;5089774;28;20188;-84
2022/01/19 13:43:19;;;;;;;2.30;0.93;;;19.20;51.00;;;;;;5069475;28;20165;-83
2022/01/19 13:48:28;;;;;;;1.15;0.80;;;19.30;50.60;;;;;;5083988;28;20512;-85
2022/01/19 13:50:59;;;;;;;1.02;0.70;;;19.30;51.30;;;;;;5082332;28;20177;-85
2022/01/19 13:53:33;;;;;;;1.13;0.75;;;19.30;51.00;;;;;;5082643;28;20192;-85
2022/01/19 13:56:03;;;;;;;1.25;0.77;;;19.30;50.30;;;;;;5041500;28;20236;-85
2022/01/19 13:58:36;;;;;;;0.90;0.80;;;19.30;50.70;;;;;;5042753;28;20174;-86
2022/01/19 14:01:12;;;;;;;0.75;0.68;;;19.30;51.00;;;;;;5050702;28;20200;-85
2022/01/19 14:03:52;;;;;;;1.35;0.88;;;19.20;51.00;;;;;;5041694;28;20519;-84
2022/01/19 14:06:30;;;;;;;1.13;0.73;;;19.30;50.60;;;;;;5024060;28;20286;-86
2022/01/19 14:09:29;;;;;;;1.00;0.90;;;19.30;50.50;;;;;;5044025;28;20177;-86
2022/01/19 14:12:00;;;;;;;2.40;0.73;;;19.30;50.50;;;;;;5045591;28;20192;-85
2022/01/19 14:14:31;;;;;;;1.35;0.80;;;19.30;50.70;;;;;;4993462;28;20254;-86
2022/01/19 14:17:00;;;;;;;2.90;0.82;;;19.40;50.50;;;;;;5031616;28;20211;-85
2022/01/19 14:19:29;;;;;;;1.27;1.00;;;19.30;50.90;;;;;;5031939;28;20632;-85
2022/01/19 14:22:19;;;;;;;3.58;1.17;;;19.30;50.60;;;;;;5015328;28;20167;-85
2022/01/19 14:25:08;;;;;;;1.17;0.82;;;19.20;51.00;;;;;;5031244;28;20253;-85
2022/01/19 14:27:40;;;;;;;1.20;0.75;;;19.20;51.10;;;;;;5033641;28;20211;-85
2022/01/19 14:30:32;;;;;;;1.48;0.73;;;19.20;50.70;;;;;;5028317;28;20190;-84
2022/01/19 14:33:09;;;;;;;2.13;0.80;;;19.30;50.80;;;;;;5017861;28;20187;-85
2022/01/19 14:35:51;;;;;;;1.13;0.85;;;19.30;50.80;;;;;;5040266;28;20188;-83